Time;durP1;ratioP1;P1;durP2;ratioP2;P2;SDS_P1;SDS_P2;PMS_P1;PMS_P2;Temp;Humidity;BMP_temperature;BMP_pressure;BME280_temperature;BME280_humidity;BME280_pressure;Samples;Min_cycle;Max_cycle;Signal;HPM_P1;HPM_P2
2022/01/07 00:00:06;;;;;;;;;18.75;18.00;;;;;4.75;76.16;101409.34;5021549;28;45205;-83
2022/01/07 00:02:31;;;;;;;;;20.50;19.75;;;;;4.58;75.89;101378.22;5021277;28;45344;-83
2022/01/07 00:04:57;;;;;;;;;22.33;21.00;;;;;4.71;76.14;101400.00;5021241;28;45363;-81
2022/01/07 00:07:22;;;;;;;;;19.75;16.75;;;;;4.73;76.26;101395.44;5036623;28;45431;-83
2022/01/07 00:09:47;;;;;;;;;20.75;17.25;;;;;4.58;76.31;101370.31;5020868;28;45716;-83
2022/01/07 00:12:15;;;;;;;;;21.50;21.25;;;;;4.66;76.82;101386.34;5021198;28;45228;-84
2022/01/07 00:14:40;;;;;;;;;27.50;22.25;;;;;4.58;76.91;101378.22;5053450;28;47287;-86
2022/01/07 00:17:06;;;;;;;;;21.25;18.50;;;;;4.61;76.88;101380.59;5021507;28;45161;-88
2022/01/07 00:19:31;;;;;;;;;13.67;13.67;;;;;4.54;76.85;101382.88;5002294;28;45444;-88
2022/01/07 00:21:56;;;;;;;;;22.00;17.00;;;;;4.36;76.65;101359.63;5002466;28;45232;-88
2022/01/07 00:24:22;;;;;;;;;14.00;14.00;;;;;4.27;77.39;101344.53;5001476;28;45320;-83
2022/01/07 00:26:47;;;;;;;;;15.67;15.00;;;;;4.41;77.34;101375.94;5000457;28;45255;-87
2022/01/07 00:29:12;;;;;;;;;11.75;10.25;;;;;4.37;77.66;101374.47;5001697;28;45300;-87
2022/01/07 00:31:38;;;;;;;;;16.00;13.75;;;;;4.19;77.99;101357.47;4999267;28;46852;-86
2022/01/07 00:34:03;;;;;;;;;12.67;11.00;;;;;4.12;78.62;101355.28;5001401;28;45692;-85
2022/01/07 00:36:29;;;;;;;;;11.00;10.00;;;;;4.13;79.24;101370.13;4999939;28;45389;-85
2022/01/07 00:38:54;;;;;;;;;12.33;12.33;;;;;3.97;79.84;101345.91;5001190;28;45351;-85
2022/01/07 00:41:19;;;;;;;;;13.67;11.00;;;;;4.03;80.14;101351.56;4999721;28;47009;-86
2022/01/07 00:43:45;;;;;;;;;9.67;9.67;;;;;4.01;79.86;101336.88;5001043;28;45440;-86
2022/01/07 00:46:10;;;;;;;;;14.50;13.25;;;;;4.01;80.24;101336.88;5001098;28;45304;-86
2022/01/07 00:48:35;;;;;;;;;12.67;9.67;;;;;4.06;80.16;101337.34;5001141;28;45288;-85
2022/01/07 00:51:01;;;;;;;;;15.50;12.00;;;;;3.97;81.00;101331.00;5000904;28;45430;-85
2022/01/07 00:53:26;;;;;;;;;14.00;12.00;;;;;3.86;80.55;101300.22;5000848;28;45506;-86
2022/01/07 00:55:51;;;;;;;;;9.33;9.33;;;;;3.87;80.82;101328.22;5000905;28;45227;-85
2022/01/07 00:58:17;;;;;;;;;10.25;10.25;;;;;3.84;81.39;101312.69;5001188;28;45304;-86
2022/01/07 01:00:42;;;;;;;;;11.00;11.00;;;;;3.86;82.03;101316.00;4999550;28;46014;-85
2022/01/07 01:03:08;;;;;;;;;13.33;13.33;;;;;3.74;81.29;101306.44;5000830;28;45269;-87
2022/01/07 01:05:35;;;;;;;;;14.75;12.50;;;;;3.83;82.22;101305.72;5000697;28;45235;-86
2022/01/07 01:08:00;;;;;;;;;11.67;11.33;;;;;3.89;82.61;101321.03;4999499;28;45195;-86
2022/01/07 01:10:27;;;;;;;;;13.33;10.67;;;;;3.78;82.98;101307.88;5015293;28;46910;-85
2022/01/07 01:12:54;;;;;;;;;13.67;13.00;;;;;3.78;82.02;101305.25;5000487;28;45490;-85
2022/01/07 01:15:23;;;;;;;;;12.33;10.00;;;;;3.78;82.37;101313.13;5000618;28;45343;-85
2022/01/07 01:17:50;;;;;;;;;10.67;10.67;;;;;3.78;82.94;101313.13;5004706;28;45257;-85
2022/01/07 01:20:16;;;;;;;;;11.67;10.67;;;;;3.63;82.26;101289.69;5019104;28;47042;-85
2022/01/07 01:22:41;;;;;;;;;14.67;12.00;;;;;3.79;83.08;101314.81;5020286;28;45192;-85
2022/01/07 01:25:07;;;;;;;;;10.67;9.00;;;;;3.65;82.32;101293.00;5019941;28;45240;-85
2022/01/07 01:27:33;;;;;;;;;11.67;11.67;;;;;3.69;82.90;101293.63;5019279;28;45534;-85
2022/01/07 01:30:00;;;;;;;;;8.00;7.00;;;;;3.61;82.53;101285.47;5020193;28;45498;-86
2022/01/07 01:32:26;;;;;;;;;10.33;10.33;;;;;3.61;83.25;101283.69;5018945;28;47176;-85
2022/01/07 01:34:51;;;;;;;;;9.75;9.50;;;;;3.69;84.19;101290.16;5052033;28;45256;-86
2022/01/07 01:37:17;;;;;;;;;9.67;9.67;;;;;3.60;83.60;101270.66;5020230;28;45307;-82
2022/01/07 01:39:42;;;;;;;;;12.75;10.00;;;;;3.58;83.94;101264.66;5019789;28;45350;-86
2022/01/07 01:42:08;;;;;;;;;9.33;9.33;;;;;3.58;83.41;101260.25;5019452;28;46180;-85
2022/01/07 01:44:33;;;;;;;;;8.50;8.50;;;;;3.60;83.84;101253.09;5019530;28;45287;-86
2022/01/07 01:46:59;;;;;;;;;14.00;8.33;;;;;3.57;84.41;101255.09;5035415;28;45180;-85
2022/01/07 01:49:25;;;;;;;;;10.00;10.00;;;;;3.60;83.94;101275.91;5019844;28;45211;-84
2022/01/07 01:51:50;;;;;;;;;13.33;12.00;;;;;3.48;84.33;101273.25;5019773;28;45481;-85
2022/01/07 01:54:16;;;;;;;;;10.00;9.33;;;;;3.59;84.63;101301.34;5019528;28;45232;-84
2022/01/07 01:56:41;;;;;;;;;8.33;8.00;;;;;3.64;84.48;101301.84;5018551;28;45319;-85
2022/01/07 01:59:08;;;;;;;;;7.33;7.33;;;;;3.69;83.87;101306.78;5019844;28;45262;-84
2022/01/07 02:01:34;;;;;;;;;8.00;7.33;;;;;3.70;84.10;101315.47;5018293;28;48357;-84
2022/01/07 02:04:00;;;;;;;;;11.00;10.33;;;;;3.72;84.10;101311.81;5018466;28;45341;-84
2022/01/07 02:06:25;;;;;;;;;6.33;4.33;;;;;3.75;84.14;101300.22;5019719;28;45313;-84
2022/01/07 02:08:51;;;;;;;;;7.67;7.00;;;;;3.65;84.43;101293.00;5019501;28;45290;-85
2022/01/07 02:11:17;;;;;;;;;8.67;7.67;;;;;3.57;84.88;101279.63;5017957;28;47178;-84
2022/01/07 02:13:43;;;;;;;;;11.00;10.33;;;;;3.65;84.87;101289.53;5019650;28;45353;-84
2022/01/07 02:16:08;;;;;;;;;12.00;11.00;;;;;3.71;84.10;101291.72;5019754;28;45290;-84
2022/01/07 02:18:34;;;;;;;;;11.67;9.00;;;;;3.70;84.18;101276.03;4994829;28;46060;-85
2022/01/07 02:21:00;;;;;;;;;7.67;7.67;;;;;3.76;84.47;101281.69;4980195;28;45286;-84
2022/01/07 02:23:25;;;;;;;;;8.33;8.33;;;;;3.81;84.15;101283.13;4979925;28;45343;-85
2022/01/07 02:25:51;;;;;;;;;9.00;8.00;;;;;3.72;84.69;101268.88;4980113;28;45271;-85
2022/01/07 02:28:16;;;;;;;;;9.33;9.00;;;;;3.72;84.97;101253.97;4980113;28;45274;-86
2022/01/07 02:30:42;;;;;;;;;12.33;10.33;;;;;3.82;85.20;101276.91;4979895;28;45269;-85
2022/01/07 02:33:07;;;;;;;;;10.00;10.00;;;;;3.77;85.17;101262.31;4980022;28;45210;-85
2022/01/07 02:35:35;;;;;;;;;7.67;7.00;;;;;3.90;84.29;101275.38;4980176;28;45345;-84
2022/01/07 02:38:00;;;;;;;;;11.67;10.00;;;;;3.89;84.67;101259.72;4978652;28;47412;-86
2022/01/07 02:40:26;;;;;;;;;7.67;7.67;;;;;3.86;84.20;101259.97;4979614;28;45402;-85
2022/01/07 02:42:52;;;;;;;;;9.00;9.00;;;;;3.82;84.84;101235.69;4979943;28;45260;-85
2022/01/07 02:45:17;;;;;;;;;8.67;8.67;;;;;3.86;85.29;101242.38;4978666;28;45340;-85
2022/01/07 02:47:55;;;;;;;;;9.00;9.00;;;;;3.90;84.98;101238.53;4978565;28;46393;-85
2022/01/07 02:50:31;;;;;;;;;7.00;7.00;;;;;3.94;84.87;101241.78;4979737;28;46587;-85
2022/01/07 02:52:57;;;;;;;;;11.33;11.33;;;;;3.90;84.65;101228.03;4979681;28;45268;-84
2022/01/07 02:55:24;;;;;;;;;9.00;9.00;;;;;3.88;85.14;101231.72;4980821;28;45232;-85
2022/01/07 02:57:50;;;;;;;;;9.00;8.33;;;;;3.92;85.07;101238.44;4981800;28;46369;-85
2022/01/07 03:00:17;;;;;;;;;11.33;10.33;;;;;3.94;84.74;101238.31;4982942;28;46042;-85
2022/01/07 03:02:44;;;;;;;;;10.67;10.00;;;;;3.92;84.66;101225.28;4998401;28;45314;-86
2022/01/07 03:05:09;;;;;;;;;7.33;7.00;;;;;3.87;84.82;101214.28;4981620;28;45247;-85
2022/01/07 03:07:36;;;;;;;;;11.33;11.00;;;;;3.92;84.97;101228.75;4983002;28;45490;-85
2022/01/07 03:10:02;;;;;;;;;9.00;8.67;;;;;3.90;85.22;101219.31;4982408;28;45645;-85
2022/01/07 03:12:28;;;;;;;;;9.33;8.00;;;;;3.91;84.99;101210.47;4982995;28;45520;-85
2022/01/07 03:14:53;;;;;;;;;7.00;7.00;;;;;3.96;85.82;101225.88;4983075;28;45944;-85
2022/01/07 03:17:18;;;;;;;;;6.67;5.00;;;;;3.92;85.25;101220.88;4985447;28;45523;-84
2022/01/07 03:19:44;;;;;;;;;10.33;10.00;;;;;3.99;85.22;101228.28;5022281;28;46128;-85
2022/01/07 03:22:09;;;;;;;;;9.00;9.00;;;;;3.89;84.95;101213.22;5022429;28;45300;-85
2022/01/07 03:24:35;;;;;;;;;7.00;7.00;;;;;3.93;85.43;101219.09;5020729;28;45523;-85
2022/01/07 03:27:00;;;;;;;;;9.33;9.33;;;;;3.90;85.77;101216.69;5022220;28;45340;-85
2022/01/07 03:29:26;;;;;;;;;7.67;7.67;;;;;4.05;85.90;101235.72;5022161;28;46661;-85
2022/01/07 03:31:51;;;;;;;;;9.00;9.00;;;;;4.04;85.99;101219.06;5054177;28;45967;-85
2022/01/07 03:34:16;;;;;;;;;9.25;8.00;;;;;4.04;85.34;101223.50;5020897;28;45367;-85
2022/01/07 03:36:42;;;;;;;;;9.67;9.67;;;;;3.97;85.61;101206.50;5054119;28;47036;-84
2022/01/07 03:39:08;;;;;;;;;7.67;7.67;;;;;4.07;85.54;101222.44;5021693;28;46343;-85
2022/01/07 03:41:34;;;;;;;;;9.00;7.67;;;;;4.00;85.26;101204.50;5022197;28;45226;-84
2022/01/07 03:43:59;;;;;;;;;8.00;8.00;;;;;4.03;85.34;101220.03;5020567;28;45257;-85
2022/01/07 03:46:24;;;;;;;;;8.67;5.67;;;;;4.09;85.67;101223.97;5021941;28;45391;-84
2022/01/07 03:48:50;;;;;;;;;8.67;8.00;;;;;4.08;85.50;101217.06;5053745;28;47020;-85
2022/01/07 03:51:16;;;;;;;;;11.00;8.67;;;;;4.06;85.09;101211.06;5020472;28;45680;-84
2022/01/07 03:53:42;;;;;;;;;7.00;7.00;;;;;4.06;85.00;101203.19;5021796;28;45288;-85
2022/01/07 03:56:10;;;;;;;;;9.67;9.67;;;;;4.14;85.41;101211.31;5021568;28;45453;-84
2022/01/07 03:58:35;;;;;;;;;8.67;7.67;;;;;4.08;84.87;101189.91;5021628;28;45570;-86
2022/01/07 04:01:00;;;;;;;;;9.67;9.00;;;;;4.16;85.40;101204.13;5053398;28;45357;-85
2022/01/07 04:03:26;;;;;;;;;8.33;6.67;;;;;4.20;85.37;101203.88;5021788;28;45287;-86
2022/01/07 04:05:51;;;;;;;;;8.00;8.00;;;;;4.24;85.09;101213.19;5020547;28;45461;-85
2022/01/07 04:08:16;;;;;;;;;9.67;9.00;;;;;4.19;84.82;101202.22;5019974;28;47390;-84
2022/01/07 04:10:42;;;;;;;;;8.67;8.67;;;;;4.10;85.58;101182.72;5021128;28;45355;-85
2022/01/07 04:13:07;;;;;;;;;7.00;7.00;;;;;4.22;85.10;101208.06;5021482;28;45737;-83
2022/01/07 04:15:33;;;;;;;;;8.67;7.67;;;;;4.29;84.86;101203.16;5021364;28;45312;-85
2022/01/07 04:17:58;;;;;;;;;8.00;8.00;;;;;4.24;85.08;101190.38;5014498;28;45165;-85
2022/01/07 04:20:27;;;;;;;;;9.33;8.00;;;;;4.23;85.27;101179.97;5016854;28;45198;-85
2022/01/07 04:22:53;;;;;;;;;9.00;8.00;;;;;4.33;85.02;101194.06;5001725;28;45259;-85
2022/01/07 04:25:20;;;;;;;;;8.67;6.67;;;;;4.25;84.65;101172.78;4999567;28;45992;-84
2022/01/07 04:27:57;;;;;;;;;8.00;8.00;;;;;4.32;84.95;101187.13;5001459;28;45520;-86
2022/01/07 04:30:23;;;;;;;;;7.00;5.00;;;;;4.24;84.77;101166.69;4999812;28;45445;-85
2022/01/07 04:32:52;;;;;;;;;6.67;6.67;;;;;4.39;84.71;101180.41;5001405;28;45380;-85
2022/01/07 04:35:18;;;;;;;;;9.67;8.67;;;;;4.39;84.53;101169.88;4999893;28;46374;-85
2022/01/07 04:37:43;;;;;;;;;12.33;9.33;;;;;4.33;84.84;101153.75;5001076;28;45989;-85
2022/01/07 04:40:11;;;;;;;;;8.00;7.00;;;;;4.38;84.78;101181.38;5001116;28;45393;-85
2022/01/07 04:42:37;;;;;;;;;6.67;6.67;;;;;4.31;84.95;101169.66;5001295;28;45362;-85
2022/01/07 04:45:04;;;;;;;;;8.33;7.00;;;;;4.39;84.71;101180.41;5001061;28;45328;-86
2022/01/07 04:47:29;;;;;;;;;8.00;8.00;;;;;4.29;84.59;101153.97;5001016;28;46452;-84
2022/01/07 04:49:54;;;;;;;;;10.67;9.67;;;;;4.36;84.33;101169.28;4999602;28;45209;-85
2022/01/07 04:52:21;;;;;;;;;7.67;7.67;;;;;4.41;84.45;101167.97;5001237;28;45268;-84
2022/01/07 04:54:46;;;;;;;;;11.00;8.67;;;;;4.26;84.46;101145.50;5000786;28;45306;-84
2022/01/07 04:57:11;;;;;;;;;5.33;5.33;;;;;4.37;84.27;101168.34;5000731;28;46341;-84
2022/01/07 04:59:37;;;;;;;;;4.33;4.33;;;;;4.38;84.39;101170.88;5016052;28;45411;-85
2022/01/07 05:02:02;;;;;;;;;7.67;7.67;;;;;4.38;84.15;101172.66;5001012;28;45204;-83
2022/01/07 05:04:28;;;;;;;;;4.00;4.00;;;;;4.34;84.25;101158.88;5000831;28;45228;-85
2022/01/07 05:06:53;;;;;;;;;7.00;7.00;;;;;4.36;84.59;101183.28;5000655;28;45544;-84
2022/01/07 05:09:20;;;;;;;;;4.33;3.67;;;;;4.36;84.10;101182.44;5000352;28;45387;-85
2022/01/07 05:11:47;;;;;;;;;8.00;5.00;;;;;4.48;84.15;101196.41;5000676;28;45343;-84
2022/01/07 05:14:13;;;;;;;;;8.00;7.33;;;;;4.45;83.93;101194.88;5000594;28;45302;-85
2022/01/07 05:16:39;;;;;;;;;7.67;7.67;;;;;4.44;83.93;101190.59;5000293;28;46412;-84
2022/01/07 05:19:04;;;;;;;;;4.67;4.67;;;;;4.25;84.22;101163.09;5016424;28;45623;-85
2022/01/07 05:21:30;;;;;;;;;7.00;5.00;;;;;4.46;84.72;101190.47;5020655;28;45215;-84
2022/01/07 05:23:56;;;;;;;;;8.00;8.00;;;;;4.52;83.92;101182.91;5020272;28;45449;-86
2022/01/07 05:26:21;;;;;;;;;7.33;6.00;;;;;4.49;84.28;101180.50;5020273;28;46719;-85
2022/01/07 05:28:47;;;;;;;;;8.00;8.00;;;;;4.59;84.41;101185.88;5020411;28;45301;-85
2022/01/07 05:31:12;;;;;;;;;5.00;5.00;;;;;4.51;84.10;101180.38;5052563;28;45184;-84
2022/01/07 05:33:37;;;;;;;;;6.00;5.00;;;;;4.51;83.88;101167.22;5020374;28;45171;-85
2022/01/07 05:36:03;;;;;;;;;8.00;5.67;;;;;4.54;84.28;101169.59;5052289;28;46994;-85
2022/01/07 05:38:28;;;;;;;;;5.00;5.00;;;;;4.56;84.04;101188.75;5052036;28;45319;-84
2022/01/07 05:40:54;;;;;;;;;8.33;5.00;;;;;4.59;83.95;101188.53;5020018;28;45504;-82
2022/01/07 05:43:19;;;;;;;;;8.67;8.00;;;;;4.42;84.03;101155.63;5018488;28;47043;-79
2022/01/07 05:45:45;;;;;;;;;5.00;5.00;;;;;4.51;83.57;101175.13;5019771;28;45285;-80
2022/01/07 05:48:12;;;;;;;;;6.67;5.00;;;;;4.66;84.04;101188.84;5019937;28;45396;-83
2022/01/07 05:50:38;;;;;;;;;8.67;6.33;;;;;4.62;84.11;101177.75;5019935;28;45292;-83
2022/01/07 05:53:03;;;;;;;;;7.67;5.00;;;;;4.62;83.84;101169.84;5019607;28;45304;-84
2022/01/07 05:55:28;;;;;;;;;5.00;5.00;;;;;4.73;83.94;101181.31;5018237;28;47222;-83
2022/01/07 05:57:54;;;;;;;;;5.33;5.00;;;;;4.70;83.75;101179.72;5019836;28;45228;-84
2022/01/07 06:00:19;;;;;;;;;5.00;5.00;;;;;4.76;84.19;101184.50;5019999;28;45161;-84
2022/01/07 06:02:45;;;;;;;;;5.33;4.33;;;;;4.80;83.85;101177.19;5019693;28;45165;-84
2022/01/07 06:05:11;;;;;;;;;8.00;5.67;;;;;4.70;83.49;101161.28;5019488;28;46189;-83
2022/01/07 06:07:37;;;;;;;;;4.00;4.00;;;;;4.66;83.12;101157.25;5018423;28;45329;-84
2022/01/07 06:10:05;;;;;;;;;4.67;4.67;;;;;4.73;83.19;101176.03;5019190;28;45277;-84
2022/01/07 06:12:30;;;;;;;;;5.00;5.00;;;;;4.59;83.12;101170.09;5018227;28;46413;-83
2022/01/07 06:14:56;;;;;;;;;4.00;4.00;;;;;4.63;83.60;101171.50;5019428;28;46010;-83
2022/01/07 06:17:21;;;;;;;;;5.00;5.00;;;;;4.51;83.44;101167.22;5017652;28;45323;-83
2022/01/07 06:19:46;;;;;;;;;6.33;5.00;;;;;4.47;83.68;101161.38;5015078;28;45363;-83
2022/01/07 06:22:11;;;;;;;;;9.00;7.00;;;;;4.56;83.53;101172.97;4998333;28;45869;-84
2022/01/07 06:24:37;;;;;;;;;4.67;4.67;;;;;4.54;83.59;101169.59;4998070;28;48174;-88
2022/01/07 06:27:03;;;;;;;;;4.00;4.00;;;;;4.57;83.87;101177.25;5000059;28;45405;-84
2022/01/07 06:29:28;;;;;;;;;9.00;5.33;;;;;4.57;83.68;101189.59;5000859;28;45306;-82
2022/01/07 06:31:53;;;;;;;;;4.67;4.67;;;;;4.52;83.53;101179.44;5003144;28;45250;-85
2022/01/07 06:34:20;;;;;;;;;5.00;5.00;;;;;4.50;83.26;101169.03;5001679;28;46936;-83
2022/01/07 06:36:47;;;;;;;;;8.00;6.67;;;;;4.51;83.49;101172.50;5018226;28;45300;-83
2022/01/07 06:39:12;;;;;;;;;8.33;7.00;;;;;4.52;83.43;101177.63;5002968;28;45692;-86
2022/01/07 06:41:38;;;;;;;;;15.33;15.33;;;;;4.54;83.50;101174.88;5003144;28;46151;-89
2022/01/07 06:44:04;;;;;;;;;12.67;10.00;;;;;4.56;83.90;101172.97;5003655;28;45429;-87
2022/01/07 06:46:29;;;;;;;;;6.67;6.67;;;;;4.55;83.17;101164.22;5003185;28;45327;-87
2022/01/07 06:48:54;;;;;;;;;10.00;10.00;;;;;4.51;84.04;101154.06;5003272;28;45269;-88
2022/01/07 06:51:20;;;;;;;;;7.33;6.67;;;;;4.47;83.86;101150.00;5018413;28;47061;-88
2022/01/07 06:53:45;;;;;;;;;7.00;7.00;;;;;4.64;84.09;101181.06;5002744;28;46009;-86
2022/01/07 06:56:10;;;;;;;;;9.67;8.00;;;;;4.53;84.18;101162.69;5002968;28;45262;-88
2022/01/07 06:58:36;;;;;;;;;5.00;5.00;;;;;4.59;84.13;101170.09;5003415;28;45450;-88
2022/01/07 07:01:02;;;;;;;;;4.67;4.67;;;;;4.72;83.99;101174.34;5000389;28;45533;-84
2022/01/07 07:03:27;;;;;;;;;7.67;7.67;;;;;4.76;84.29;101168.69;5002946;28;45363;-86
2022/01/07 07:05:52;;;;;;;;;6.33;6.33;;;;;4.66;83.72;101151.97;5004751;28;45417;-88
2022/01/07 07:08:18;;;;;;;;;8.00;8.00;;;;;4.68;84.39;101152.69;5006180;28;45395;-87
2022/01/07 07:10:43;;;;;;;;;7.33;6.33;;;;;4.70;83.72;101150.75;5002746;28;45519;-88
2022/01/07 07:13:08;;;;;;;;;8.33;7.00;;;;;4.66;84.31;101144.09;5003189;28;46116;-82
2022/01/07 07:15:34;;;;;;;;;10.67;8.67;;;;;4.86;84.33;101166.16;5002008;28;45292;-89
2022/01/07 07:17:59;;;;;;;;;11.00;10.00;;;;;4.82;84.38;101153.38;5004728;28;45151;-90
2022/01/07 07:20:25;;;;;;;;;11.67;11.67;;;;;4.90;84.23;101157.03;5003311;28;46366;-89
2022/01/07 07:22:50;;;;;;;;;6.67;6.67;;;;;4.77;84.08;101151.13;5002677;28;46297;-85
2022/01/07 07:25:15;;;;;;;;;7.33;5.33;;;;;4.72;83.97;101146.22;5002129;28;45226;-86
2022/01/07 07:27:41;;;;;;;;;9.67;9.00;;;;;4.80;84.33;101174.56;5002484;28;45136;-85
2022/01/07 07:30:09;;;;;;;;;9.00;8.00;;;;;4.80;84.34;101164.03;5002330;28;45237;-86
2022/01/07 07:32:36;;;;;;;;;6.33;6.33;;;;;4.86;83.95;101173.22;5002166;28;45461;-86
2022/01/07 07:36:26;;;;;;;;;9.00;8.00;;;;;5.00;84.37;101193.16;5003051;28;45364;-83
2022/01/07 07:37:48;;;;;;;;;10.67;9.33;;;;;5.01;83.79;101190.41;5002323;28;45300;-85
2022/01/07 07:40:14;;;;;;;;;8.33;8.33;;;;;5.11;83.87;101201.03;5000889;28;45534;-84
2022/01/07 07:42:39;;;;;;;;;10.00;8.67;;;;;5.02;84.27;101173.63;5000030;28;46104;-85
2022/01/07 07:45:05;;;;;;;;;15.33;11.33;;;;;5.05;84.52;101169.91;5002030;28;45231;-85
2022/01/07 07:47:34;;;;;;;;;9.67;8.00;;;;;5.16;83.97;101180.41;5002364;28;45198;-87
2022/01/07 07:49:59;;;;;;;;;10.33;9.67;;;;;5.23;84.64;101195.69;5001790;28;45502;-85
2022/01/07 07:52:24;;;;;;;;;6.67;6.67;;;;;5.26;84.20;101196.28;4996419;28;45267;-82
2022/01/07 07:54:50;;;;;;;;;13.67;11.67;;;;;5.27;83.89;101181.31;4998228;28;45436;-85
2022/01/07 07:57:15;;;;;;;;;8.33;8.33;;;;;5.32;84.32;101192.28;5002029;28;45303;-88
2022/01/07 07:59:41;;;;;;;;;7.00;7.00;;;;;5.27;84.20;101181.31;5002732;28;45369;-85
2022/01/07 08:02:09;;;;;;;;;12.00;11.00;;;;;5.33;84.07;101196.63;5002340;28;45349;-84
2022/01/07 08:04:37;;;;;;;;;9.00;9.00;;;;;5.24;83.92;101171.03;5002135;28;45150;-84
2022/01/07 08:07:03;;;;;;;;;11.33;10.33;;;;;5.20;84.82;101169.59;5001307;28;45274;-87
2022/01/07 08:09:30;;;;;;;;;11.33;9.00;;;;;5.32;84.10;101186.19;5000270;28;45626;-87
2022/01/07 08:12:04;;;;;;;;;7.33;7.33;;;;;5.29;84.35;101184.63;4999473;28;47337;-86
2022/01/07 08:17:14;;;;;;;;;9.00;9.00;;;;;5.26;84.08;101187.53;5002361;28;45348;-87
2022/01/07 08:19:39;;;;;;;;;10.00;10.00;;;;;5.35;84.20;101194.66;5021462;28;45490;-86
2022/01/07 08:22:05;;;;;;;;;9.00;9.00;;;;;5.18;83.97;101170.56;5021447;28;45487;-87
2022/01/07 08:24:30;;;;;;;;;10.00;10.00;;;;;5.26;83.90;101184.88;5021003;28;45386;-87
2022/01/07 08:26:56;;;;;;;;;11.00;9.67;;;;;5.39;84.28;101206.63;5021117;28;45359;-82
2022/01/07 08:29:24;;;;;;;;;7.33;7.33;;;;;5.38;84.62;101212.03;5021214;28;45363;-88
2022/01/07 08:37:03;;;;;;;;;5.00;5.00;;;;;5.22;85.36;101184.31;5022733;28;45217;-76
2022/01/07 08:39:28;;;;;;;;;5.33;5.00;;;;;5.24;85.08;101187.66;5036684;28;45481;-77
2022/01/07 08:41:54;;;;;;;;;10.00;10.00;;;;;5.29;86.06;101201.28;5074800;28;46785;-78
2022/01/07 08:44:21;;;;;;;;;9.00;9.00;;;;;5.26;86.02;101191.00;5020540;28;45390;-75
2022/01/07 08:46:47;;;;;;;;;9.33;9.33;;;;;5.30;86.24;101202.13;5053059;28;45360;-75
2022/01/07 08:49:12;;;;;;;;;10.00;10.00;;;;;5.27;86.78;101194.50;5020629;28;45296;-74
2022/01/07 08:51:39;;;;;;;;;8.67;8.33;;;;;5.28;86.48;101194.34;5020129;28;46117;-77
2022/01/07 08:54:05;;;;;;;;;9.33;9.33;;;;;5.34;86.69;101193.00;5052611;28;45306;-74
2022/01/07 08:56:30;;;;;;;;;9.67;9.67;;;;;5.39;86.64;101190.00;5020837;28;45476;-76
2022/01/07 08:58:57;;;;;;;;;9.33;9.00;;;;;5.43;86.19;101186.13;5020685;28;45174;-74
2022/01/07 09:01:24;;;;;;;;;9.67;7.67;;;;;5.34;86.29;101181.63;5020421;28;45363;-78
2022/01/07 09:03:50;;;;;;;;;9.00;9.00;;;;;5.38;87.12;101183.88;5022050;28;45708;-77
2022/01/07 09:06:15;;;;;;;;;10.00;9.00;;;;;5.38;86.81;101177.75;5053499;28;45418;-77
2022/01/07 09:08:41;;;;;;;;;8.67;8.33;;;;;5.36;86.21;101175.25;5021012;28;46852;-78
2022/01/07 09:11:06;;;;;;;;;7.00;7.00;;;;;5.47;86.61;101181.41;5020124;28;45369;-77
2022/01/07 09:13:32;;;;;;;;;10.00;7.00;;;;;5.47;86.85;101184.03;5020368;28;45337;-79
2022/01/07 09:15:57;;;;;;;;;10.00;9.67;;;;;5.47;86.79;101174.34;5052613;28;45768;-80
2022/01/07 09:18:22;;;;;;;;;8.00;7.67;;;;;5.43;87.18;101165.88;4998664;28;47791;-80
2022/01/07 09:20:48;;;;;;;;;11.00;9.00;;;;;5.46;87.13;101145.47;4980656;28;46105;-80
2022/01/07 09:23:15;;;;;;;;;10.00;10.00;;;;;5.51;86.94;101151.19;4980577;28;45217;-80
2022/01/07 09:25:41;;;;;;;;;5.00;5.00;;;;;5.55;87.02;101160.50;4980797;28;45241;-80
2022/01/07 09:28:08;;;;;;;;;15.00;13.67;;;;;5.30;87.03;101113.34;4995780;28;45247;-80
2022/01/07 09:30:36;;;;;;;;;15.67;14.67;;;;;5.69;87.23;101135.59;4979174;28;46288;-76
2022/01/07 09:33:03;;;;;;;;;12.33;12.33;;;;;5.75;87.36;101147.44;4980508;28;45260;-77
2022/01/07 09:35:28;;;;;;;;;11.33;10.00;;;;;5.85;87.24;101165.91;4979762;28;45270;-79
2022/01/07 09:37:54;;;;;;;;;10.00;10.00;;;;;5.67;87.27;101153.34;4980543;28;45434;-81
2022/01/07 09:40:20;;;;;;;;;10.67;10.33;;;;;5.87;86.92;101177.19;4980432;28;45800;-76
2022/01/07 09:42:55;;;;;;;;;11.00;10.33;;;;;5.93;86.87;101198.59;4980513;28;45289;-75
2022/01/07 09:45:23;;;;;;;;;6.00;6.00;;;;;5.83;86.62;101178.44;4980532;28;45376;-75
2022/01/07 09:47:48;;;;;;;;;5.33;5.33;;;;;5.93;86.73;101198.59;4980265;28;45449;-75
2022/01/07 09:50:14;;;;;;;;;7.00;7.00;;;;;5.89;86.56;101194.53;4980304;28;45387;-76
2022/01/07 09:52:39;;;;;;;;;6.00;6.00;;;;;5.84;86.45;101182.72;4980615;28;45386;-80
2022/01/07 09:55:05;;;;;;;;;9.33;9.33;;;;;5.97;87.01;101214.16;4995181;28;45262;-78
2022/01/07 09:57:31;;;;;;;;;7.67;7.00;;;;;6.01;86.72;101205.00;4978986;28;46010;-77
2022/01/07 09:59:56;;;;;;;;;6.67;5.00;;;;;5.98;86.76;101197.38;4978756;28;46397;-81
2022/01/07 10:02:22;;;;;;;;;6.67;6.67;;;;;5.98;86.91;101192.09;4980632;28;45314;-79
2022/01/07 10:04:48;;;;;;;;;5.67;5.67;;;;;5.95;86.24;101201.09;4978435;28;45379;-77
2022/01/07 10:07:21;;;;;;;;;5.00;5.00;;;;;5.91;86.05;101200.53;4980078;28;45423;-81
2022/01/07 10:10:07;;;;;;;;;5.33;5.33;;;;;5.78;86.59;101184.09;4979630;28;46065;-79
2022/01/07 10:12:49;;;;;;;;;4.00;4.00;;;;;5.97;86.57;101206.25;4979923;28;45334;-80
2022/01/07 10:15:42;;;;;;;;;5.67;5.67;;;;;6.05;86.92;101195.91;4978821;28;45363;-80
2022/01/07 10:18:10;;;;;;;;;7.67;7.67;;;;;6.13;87.10;101192.56;5000765;28;45495;-80
2022/01/07 10:20:45;;;;;;;;;6.00;6.00;;;;;6.08;87.09;101157.84;5016153;28;49165;-79
2022/01/07 10:23:17;;;;;;;;;7.00;7.00;;;;;6.32;87.46;101184.72;4999045;28;45330;-80
2022/01/07 10:25:45;;;;;;;;;5.00;5.00;;;;;6.40;86.81;101170.84;4999519;28;45356;-79
2022/01/07 10:28:16;;;;;;;;;6.00;5.00;;;;;6.34;86.44;101150.25;4999274;28;45467;-80
2022/01/07 10:30:46;;;;;;;;;6.00;6.00;;;;;6.47;86.46;101165.03;4989534;28;45293;-80
2022/01/07 10:33:35;;;;;;;;;15.00;14.00;;;;;6.41;86.35;101146.09;4997164;28;45379;-81
2022/01/07 10:36:06;;;;;;;;;9.00;8.33;;;;;6.47;86.37;101155.31;4993925;28;45439;-82
2022/01/07 10:38:33;;;;;;;;;13.00;9.67;;;;;6.51;85.91;101142.66;4998037;28;45304;-85
2022/01/07 10:41:00;;;;;;;;;9.33;9.00;;;;;6.25;86.30;101099.13;4999530;28;46361;-79
2022/01/07 10:43:33;;;;;;;;;10.00;9.67;;;;;6.42;86.03;101137.22;4999619;28;45340;-79
2022/01/07 10:46:24;;;;;;;;;10.67;10.33;;;;;6.37;86.39;101143.91;4999769;28;45341;-82
2022/01/07 10:48:51;;;;;;;;;12.67;11.00;;;;;6.31;86.59;101134.69;4997063;28;45381;-80
2022/01/07 10:51:43;;;;;;;;;9.33;8.33;;;;;6.30;86.78;101138.31;4997312;28;45399;-79
2022/01/07 10:54:10;;;;;;;;;9.67;9.67;;;;;6.40;87.19;101146.25;4993952;28;45424;-79
2022/01/07 10:56:47;;;;;;;;;9.33;8.33;;;;;6.48;86.63;101143.75;4979952;28;45333;-83
2022/01/07 10:59:15;;;;;;;;;12.67;11.67;;;;;6.46;86.34;101113.19;4979490;28;45480;-83
2022/01/07 11:01:46;;;;;;;;;9.00;8.33;;;;;6.66;85.79;101127.22;4979471;28;46561;-81
2022/01/07 11:04:14;;;;;;;;;8.33;5.00;;;;;6.68;85.87;101128.75;4977946;28;45469;-81
2022/01/07 11:06:41;;;;;;;;;9.67;7.67;;;;;6.52;85.88;101086.19;4979333;28;45279;-82
2022/01/07 11:09:09;;;;;;;;;8.00;8.00;;;;;6.91;86.25;101119.69;4977584;28;47117;-82
2022/01/07 11:11:42;;;;;;;;;7.00;7.00;;;;;6.99;85.67;101132.22;4978789;28;45473;-81
2022/01/07 11:14:08;;;;;;;;;8.00;7.00;;;;;7.00;85.21;101128.63;4979151;28;45298;-82
2022/01/07 11:16:37;;;;;;;;;9.00;8.00;;;;;7.06;85.32;101125.38;5013824;28;45301;-79
2022/01/07 11:19:05;;;;;;;;;12.00;9.00;;;;;7.12;85.25;101138.03;5013394;28;45411;-82
2022/01/07 11:21:31;;;;;;;;;7.00;6.67;;;;;7.02;85.00;101122.22;5020741;28;46459;-80
2022/01/07 11:23:56;;;;;;;;;10.33;8.00;;;;;6.96;85.01;101112.19;5021797;28;45232;-80
2022/01/07 11:26:23;;;;;;;;;7.00;6.00;;;;;6.95;84.79;101115.81;5022137;28;45834;-81
2022/01/07 11:29:00;;;;;;;;;9.67;9.67;;;;;6.64;85.01;101066.59;5037058;28;46488;-81
2022/01/07 11:31:27;;;;;;;;;8.00;7.33;;;;;7.11;84.84;101133.75;5021674;28;46688;-81
2022/01/07 11:34:18;;;;;;;;;8.00;7.67;;;;;7.13;84.90;101134.44;5020462;28;45374;-81